createdAt,value
2019-01-26T00:03:18.519Z,15.77
2019-01-26T00:06:19.047Z,19.70
2019-01-26T00:42:39.041Z,12.87
2019-01-26T02:35:54.915Z,10.90
2019-01-26T03:39:58.288Z,13.13
2019-01-26T03:52:36.289Z,12.50
2019-01-26T05:06:20.035Z,12.87
2019-01-26T05:53:08.047Z,12.50
2019-01-26T05:59:28.066Z,12.73
2019-01-26T06:02:30.222Z,13.73
2019-01-26T06:21:48.570Z,13.23
2019-01-26T06:45:56.915Z,13.20
2019-01-26T07:43:25.317Z,10.47
2019-01-26T07:46:42.967Z,9.17
2019-01-26T08:10:18.326Z,7.00
2019-01-26T08:13:06.336Z,8.77
2019-01-26T08:36:30.791Z,7.87
2019-01-26T08:40:01.398Z,8.60
2019-01-26T08:48:45.324Z,11.03
2019-01-26T08:55:06.965Z,11.23
2019-01-26T08:57:51.520Z,11.97
2019-01-26T09:00:36.181Z,9.30
2019-01-26T09:04:03.943Z,7.40
2019-01-26T09:10:09.095Z,10.40
2019-01-26T09:13:25.911Z,11.37
2019-01-26T09:19:24.922Z,9.27
2019-01-26T09:25:30.427Z,12.37
2019-01-26T09:28:09.825Z,12.03
2019-01-26T09:30:46.914Z,8.57
2019-01-26T09:33:24.805Z,11.83
2019-01-26T09:36:02.098Z,11.00
2019-01-26T09:38:38.560Z,12.93
2019-01-26T09:41:15.856Z,12.07
2019-01-26T09:43:51.910Z,11.13
2019-01-26T09:46:31.856Z,9.20
2019-01-26T09:49:09.752Z,13.37
2019-01-26T09:55:14.706Z,14.80
2019-01-26T10:01:29.900Z,12.53
2019-01-26T10:04:06.572Z,13.57
2019-01-26T10:06:44.882Z,13.17
2019-01-26T10:09:20.366Z,12.33
2019-01-26T10:11:56.178Z,13.07
2019-01-26T10:17:58.985Z,9.00
2019-01-26T10:24:03.731Z,10.87
2019-01-26T10:30:09.707Z,14.37
2019-01-26T10:32:46.414Z,11.70
2019-01-26T10:35:25.713Z,9.13
2019-01-26T10:38:00.748Z,14.13
2019-01-26T10:40:57.898Z,9.33
2019-01-26T10:43:34.415Z,6.90
2019-01-26T10:46:09.429Z,11.83
2019-01-26T10:48:45.866Z,9.33
2019-01-26T10:51:20.900Z,8.63
2019-01-26T10:53:56.430Z,12.47
2019-01-26T10:56:31.407Z,10.37
2019-01-26T10:59:05.795Z,12.07
2019-01-26T11:01:41.649Z,11.67
2019-01-26T11:04:17.705Z,10.50
2019-01-26T11:06:53.972Z,13.37
2019-01-26T11:09:30.025Z,7.83
2019-01-26T11:12:07.720Z,9.83
2019-01-26T11:17:47.896Z,18.10
2019-01-26T11:20:24.420Z,10.03
2019-01-26T11:23:00.008Z,9.13
2019-01-26T11:25:36.685Z,9.43
2019-01-26T11:28:11.921Z,10.70
2019-01-26T11:30:47.776Z,10.27
2019-01-26T11:33:30.383Z,8.47
2019-01-26T11:36:04.426Z,12.93
2019-01-26T11:38:39.631Z,8.40
2019-01-26T11:41:13.641Z,10.80
2019-01-26T11:43:50.723Z,11.33
2019-01-26T11:46:43.982Z,11.50
2019-01-26T11:49:19.835Z,8.47
2019-01-26T11:52:14.448Z,8.97
2019-01-26T11:55:18.644Z,10.70
2019-01-26T12:01:37.320Z,10.87
2019-01-26T12:04:37.340Z,12.63
2019-01-26T12:07:14.012Z,11.77
2019-01-26T12:09:52.443Z,6.77
2019-01-26T12:12:27.150Z,8.67
2019-01-26T12:15:03.013Z,6.70
2019-01-26T12:17:41.928Z,10.37
2019-01-26T12:20:19.450Z,11.37
2019-01-26T12:22:57.727Z,7.40
2019-01-26T12:25:33.443Z,10.23
2019-01-26T12:28:08.821Z,6.53
2019-01-26T12:30:43.657Z,8.63
2019-01-26T12:33:20.448Z,10.80
2019-01-26T12:36:04.985Z,10.13
2019-01-26T12:38:39.446Z,10.17
2019-01-26T12:41:14.463Z,11.00
2019-01-26T12:43:54.999Z,9.63
2019-01-26T12:46:31.669Z,8.77
2019-01-26T12:49:08.966Z,7.23
2019-01-26T12:51:45.014Z,9.70
2019-01-26T12:54:23.449Z,8.20
2019-01-26T12:57:09.006Z,9.43
2019-01-26T12:59:45.881Z,11.57
2019-01-26T13:02:21.940Z,11.33
2019-01-26T13:04:57.998Z,10.10
2019-01-26T13:07:32.452Z,10.33
2019-01-26T13:10:14.416Z,11.53
2019-01-26T13:12:49.649Z,14.50
2019-01-26T13:15:26.936Z,8.07
2019-01-26T13:18:03.198Z,8.63
2019-01-26T13:20:38.467Z,7.30
2019-01-26T13:23:15.450Z,7.00
2019-01-26T13:25:51.450Z,9.83
2019-01-26T13:28:25.996Z,11.03
2019-01-26T13:31:01.030Z,6.00
2019-01-26T13:33:38.930Z,6.10
2019-01-26T13:36:14.783Z,9.70
2019-01-26T13:42:22.197Z,6.70
2019-01-26T13:48:25.509Z,7.83
2019-01-26T13:54:31.589Z,11.10
2019-01-26T13:57:06.521Z,8.33
2019-01-26T13:59:47.301Z,10.73
2019-01-26T14:05:50.364Z,12.33
2019-01-26T14:14:48.510Z,8.83
2019-01-26T14:17:24.364Z,11.87
2019-01-26T14:20:00.214Z,10.43
2019-01-26T14:22:40.370Z,11.30
2019-01-26T14:28:44.298Z,12.60
2019-01-26T14:31:19.155Z,9.13
2019-01-26T14:33:55.717Z,12.30
2019-01-26T14:39:58.294Z,11.40
2019-01-26T14:42:33.532Z,14.37
2019-01-26T14:45:10.410Z,11.03
2019-01-26T14:51:13.111Z,18.60
2019-01-26T14:53:50.195Z,10.37
2019-01-26T14:56:48.234Z,10.60
2019-01-26T14:59:24.015Z,9.17
2019-01-26T15:01:58.434Z,10.50
2019-01-26T15:04:33.677Z,11.60
2019-01-26T15:07:09.218Z,10.53
2019-01-26T15:09:45.996Z,15.03
2019-01-26T15:12:21.744Z,8.60
2019-01-26T15:18:27.209Z,14.03
2019-01-26T15:24:30.597Z,11.60
2019-01-26T15:33:17.268Z,9.27
2019-01-26T15:35:52.746Z,9.47
2019-01-26T15:41:55.379Z,12.37
2019-01-26T15:47:58.318Z,14.97
2019-01-26T15:50:32.363Z,10.77
2019-01-26T15:53:06.203Z,15.60
2019-01-26T15:55:42.398Z,13.07
2019-01-26T15:58:19.479Z,11.33
2019-01-26T16:01:00.255Z,12.87
2019-01-26T16:03:38.558Z,11.73
2019-01-26T16:09:44.736Z,11.83
2019-01-26T16:16:04.313Z,15.03
2019-01-26T16:18:45.866Z,13.30
2019-01-26T16:21:20.888Z,11.77
2019-01-26T16:23:56.089Z,14.67
2019-01-26T16:26:32.351Z,10.13
2019-01-26T16:29:08.872Z,13.83
2019-01-26T16:31:44.467Z,15.67
2019-01-26T16:34:19.091Z,15.07
2019-01-26T16:36:53.305Z,9.40
2019-01-26T16:39:29.158Z,14.80
2019-01-26T16:42:05.422Z,14.80
2019-01-26T16:44:41.274Z,13.87
2019-01-26T16:47:19.382Z,11.00
2019-01-26T16:50:14.483Z,14.17
2019-01-26T16:52:50.335Z,13.00
2019-01-26T16:55:25.171Z,17.10
2019-01-26T16:58:00.877Z,15.90
2019-01-26T17:00:41.169Z,13.17
2019-01-26T17:03:16.874Z,16.50
2019-01-26T17:09:19.524Z,15.43
2019-01-26T17:11:55.370Z,12.37
2019-01-26T17:24:52.277Z,20.27
2019-01-26T17:27:29.572Z,19.97
2019-01-26T17:33:16.086Z,14.27
2019-01-26T17:39:20.016Z,21.47
2019-01-26T17:45:23.534Z,17.47
2019-01-26T17:51:31.255Z,19.00
2019-01-26T17:54:10.722Z,19.90
2019-01-26T17:56:53.640Z,18.80
2019-01-26T18:03:09.417Z,23.97
2019-01-26T18:05:46.292Z,19.07
2019-01-26T18:08:23.092Z,18.20
2019-01-26T18:14:40.122Z,22.63
2019-01-26T18:17:18.516Z,19.83
2019-01-26T18:19:53.344Z,19.27
2019-01-26T18:22:29.126Z,20.90
2019-01-26T18:25:03.121Z,18.87
2019-01-26T18:27:45.413Z,23.73
2019-01-26T18:30:23.134Z,18.27
2019-01-26T18:36:38.126Z,19.17
2019-01-26T18:42:52.674Z,19.87
2019-01-26T18:45:29.343Z,19.70
2019-01-26T18:48:05.607Z,20.37
2019-01-26T18:50:42.120Z,21.67
2019-01-26T18:53:17.141Z,17.50
2019-01-26T18:55:52.355Z,21.83
2019-01-26T18:58:28.403Z,21.43
2019-01-26T19:01:04.052Z,20.33
2019-01-26T19:03:44.410Z,20.47
2019-01-26T19:06:20.466Z,17.53
2019-01-26T19:08:56.525Z,22.33
2019-01-26T19:11:33.608Z,20.23
2019-01-26T19:14:09.666Z,21.40
2019-01-26T19:16:45.726Z,20.63
2019-01-26T19:19:23.835Z,15.40
2019-01-26T19:21:58.681Z,18.53
2019-01-26T19:24:34.715Z,22.67
2019-01-26T19:27:13.600Z,18.83
2019-01-26T19:29:48.466Z,19.20
2019-01-26T19:32:23.125Z,18.43
2019-01-26T19:34:58.153Z,20.13
2019-01-26T19:37:33.362Z,23.03
2019-01-26T19:40:09.421Z,18.63
2019-01-26T19:42:45.889Z,20.97
2019-01-26T19:45:22.354Z,28.10
2019-01-26T19:51:39.390Z,19.70
2019-01-26T19:54:13.401Z,18.00
2019-01-26T20:00:16.714Z,22.43
2019-01-26T20:06:20.646Z,24.20
2019-01-26T20:08:55.678Z,19.60
2019-01-26T20:11:30.506Z,22.17
2019-01-26T20:14:07.213Z,19.03
2019-01-26T20:16:43.647Z,22.20
2019-01-26T20:22:46.756Z,23.10
2019-01-26T20:25:22.404Z,21.47
2019-01-26T20:27:56.625Z,26.60
2019-01-26T20:30:33.699Z,18.30
2019-01-26T20:33:08.735Z,20.07
2019-01-26T20:35:43.187Z,21.93
2019-01-26T20:38:17.193Z,18.90
2019-01-26T20:40:55.678Z,22.90
2019-01-26T20:43:31.186Z,17.90
2019-01-26T20:46:06.769Z,21.47
2019-01-26T20:48:41.392Z,24.50
2019-01-26T20:51:17.654Z,21.07
2019-01-26T20:53:52.186Z,18.37
2019-01-26T20:56:27.514Z,22.90
2019-01-26T20:59:02.184Z,17.70
2019-01-26T21:01:37.587Z,19.80
2019-01-26T21:04:14.461Z,22.17
2019-01-26T21:06:50.183Z,21.80
2019-01-26T21:09:24.528Z,21.30
2019-01-26T21:11:59.560Z,21.60
2019-01-26T21:14:34.417Z,23.70
2019-01-26T21:17:10.187Z,21.30
2019-01-26T21:23:24.617Z,23.27
2019-01-26T21:29:39.808Z,23.97
2019-01-26T21:32:14.435Z,28.50
2019-01-26T21:34:49.159Z,23.33
2019-01-26T21:41:05.206Z,23.60
2019-01-26T21:43:39.313Z,24.00
2019-01-26T21:46:16.389Z,25.03
2019-01-26T21:48:50.888Z,24.23
2019-01-26T21:51:26.740Z,28.70
2019-01-26T21:57:42.857Z,21.40
2019-01-26T22:00:22.397Z,21.60
2019-01-26T22:02:57.427Z,22.80
2019-01-26T22:05:33.278Z,26.73
2019-01-26T22:08:08.315Z,19.87
2019-01-26T22:14:00.878Z,24.00
2019-01-26T22:16:35.921Z,23.47
2019-01-26T22:19:11.969Z,19.00
2019-01-26T22:25:29.825Z,15.70
2019-01-26T22:28:07.417Z,20.50
2019-01-26T22:30:42.421Z,17.83
2019-01-26T22:36:58.771Z,19.50
2019-01-26T22:39:34.008Z,17.90
2019-01-26T22:42:08.837Z,18.43
2019-01-26T22:44:44.895Z,18.70
2019-01-26T22:47:20.954Z,18.60
2019-01-26T22:49:56.425Z,18.90
2019-01-26T22:52:31.632Z,16.47
2019-01-26T22:58:11.437Z,19.40
2019-01-26T23:04:21.880Z,17.00
2019-01-26T23:10:59.430Z,17.27
2019-01-26T23:14:14.979Z,15.13
2019-01-26T23:17:30.769Z,17.87
2019-01-26T23:20:14.434Z,16.80
2019-01-26T23:23:42.420Z,19.40
2019-01-26T23:26:42.090Z,18.47
2019-01-26T23:29:30.641Z,19.00
2019-01-26T23:35:33.955Z,16.50
2019-01-26T23:41:36.861Z,17.73
2019-01-26T23:44:12.099Z,16.80
2019-01-26T23:46:46.425Z,18.40
2019-01-26T23:49:21.420Z,22.10
2019-01-26T23:55:35.432Z,24.57
